A39

Ak-Chin Regional Airport

Maricopa, Arizona, USA
METAR KA39 241935Z AUTO 18007KT 10SM CLR 35/15 A2986 RMK AO2
Observed Flight Rules
Sep-24 @ 19:35 UTC (25 minutes ago) Visual Flight Rules
Wind Visibility Clouds
180° at 7 knots 10 miles
  • Clear skies
Temperatures Readings
Current 35°C / 95°F
Dewpoint 15°C / 59°F
Humidity 30%
Altimeter 29.86" Hg
Pressure 1011 hPa
Elevation 396
METAR KA39 241935Z AUTO 18007KT 10SM CLR 35/15 A2986 RMK AO2
Observed Flight Rules
Sep-24 @ 19:35 UTC
(25 minutes ago)
VFR
Wind Visibility
180° at 7 knots 10 miles
Clouds
  • Clear skies
Temperature Dewpoint
35°C / 95°F 15°C / 59°F
Humidity Altimeter Pressure
30% 29.86" Hg 1011 hPa